Aviation Digital Data Service (ADDS)

Output produced by METARs form (0648 UTC 19 February 2019)
found at http://www.aviationweather.gov/metar/data/
 
METAR text: AGGM 190600Z 25016KT 9999 HZ FEW018 SCT100 BKN300 29/23 Q1005
Conditions at: AGGM (MUNDA/NEW GEORGI, SB) observed 0600 UTC 19 February 2019
Temperature: 29.0°C (84°F)
Dewpoint: 23.0°C (73°F) [RH = 70%]
Pressure (altimeter): 29.68 inches Hg (1005.0 mb)
Winds: from the WSW (250 degrees) at 18 MPH (16 knots; 8.2 m/s)
Visibility: 6 or more miles (10+ km)
Ceiling: 30000 feet AGL
Clouds: few clouds at 1800 feet AGL
scattered clouds at 10000 feet AGL
broken clouds at 30000 feet AGL
Weather: HZ  (haze)

METAR text: AGGM 190500Z 23015KT 9999 HZ FEW018 SCT100 BKN300 30/24 Q1005
Conditions at: AGGM (MUNDA/NEW GEORGI, SB) observed 0500 UTC 19 February 2019
Temperature: 30.0°C (86°F)
Dewpoint: 24.0°C (75°F) [RH = 70%]
Pressure (altimeter): 29.68 inches Hg (1005.0 mb)
Winds: from the SW (230 degrees) at 17 MPH (15 knots; 7.7 m/s)
Visibility: 6 or more miles (10+ km)
Ceiling: 30000 feet AGL
Clouds: few clouds at 1800 feet AGL
scattered clouds at 10000 feet AGL
broken clouds at 30000 feet AGL
Weather: HZ  (haze)

METAR text: AGGM 190400Z 23015KT 9999 HZ FEW018 SCT100 BKN300 30/24 Q1005
Conditions at: AGGM (MUNDA/NEW GEORGI, SB) observed 0400 UTC 19 February 2019
Temperature: 30.0°C (86°F)
Dewpoint: 24.0°C (75°F) [RH = 70%]
Pressure (altimeter): 29.68 inches Hg (1005.0 mb)
Winds: from the SW (230 degrees) at 17 MPH (15 knots; 7.7 m/s)
Visibility: 6 or more miles (10+ km)
Ceiling: 30000 feet AGL
Clouds: few clouds at 1800 feet AGL
scattered clouds at 10000 feet AGL
broken clouds at 30000 feet AGL
Weather: HZ  (haze)

METAR text: AGGM 190300Z 23015KT 9999 HZ FEW018 SCT100 BKN300 30/24 Q1006
Conditions at: AGGM (MUNDA/NEW GEORGI, SB) observed 0300 UTC 19 February 2019
Temperature: 30.0°C (86°F)
Dewpoint: 24.0°C (75°F) [RH = 70%]
Pressure (altimeter): 29.70 inches Hg (1006.0 mb)
Winds: from the SW (230 degrees) at 17 MPH (15 knots; 7.7 m/s)
Visibility: 6 or more miles (10+ km)
Ceiling: 30000 feet AGL
Clouds: few clouds at 1800 feet AGL
scattered clouds at 10000 feet AGL
broken clouds at 30000 feet AGL
Weather: HZ  (haze)

METAR text: AGGM 190200Z 25012KT 9999 HZ FEW018 SCT100 BKN300 29/24 Q1007
Conditions at: AGGM (MUNDA/NEW GEORGI, SB) observed 0200 UTC 19 February 2019
Temperature: 29.0°C (84°F)
Dewpoint: 24.0°C (75°F) [RH = 74%]
Pressure (altimeter): 29.73 inches Hg (1007.0 mb)
Winds: from the WSW (250 degrees) at 14 MPH (12 knots; 6.2 m/s)
Visibility: 6 or more miles (10+ km)
Ceiling: 30000 feet AGL
Clouds: few clouds at 1800 feet AGL
scattered clouds at 10000 feet AGL
broken clouds at 30000 feet AGL
Weather: HZ  (haze)

METAR text: AGGM 190000Z 27011KT 9999 -SH SCT016 FEW017CB BKN100 26/24 Q1009
Conditions at: AGGM (MUNDA/NEW GEORGI, SB) observed 0000 UTC 19 February 2019
Temperature: 26.0°C (79°F)
Dewpoint: 24.0°C (75°F) [RH = 89%]
Pressure (altimeter): 29.79 inches Hg (1009.0 mb)
Winds: from the W (270 degrees) at 13 MPH (11 knots; 5.7 m/s)
Visibility: 6 or more miles (10+ km)
Ceiling: 10000 feet AGL
Clouds: scattered clouds at 1600 feet AGL
few clouds at 1700 feet AGL
broken clouds at 10000 feet AGL
Weather: -SH  (unknown weather)

METAR text: AGGM 182100Z 27009KT 9999 HZ FEW016 FEW017CB BKN100 29/23 Q1008
Conditions at: AGGM (MUNDA/NEW GEORGI, SB) observed 2100 UTC 18 February 2019
Temperature: 29.0°C (84°F)
Dewpoint: 23.0°C (73°F) [RH = 70%]
Pressure (altimeter): 29.76 inches Hg (1008.0 mb)
Winds: from the W (270 degrees) at 10 MPH (9 knots; 4.6 m/s)
Visibility: 6 or more miles (10+ km)
Ceiling: 10000 feet AGL
Clouds: few clouds at 1600 feet AGL
few clouds at 1700 feet AGL
broken clouds at 10000 feet AGL
Weather: HZ  (haze)

METAR text: AGGM 180500Z 28018KT 9999 HZ FEW018 BKN300 31/24 Q1005
Conditions at: AGGM (MUNDA/NEW GEORGI, SB) observed 0500 UTC 18 February 2019
Temperature: 31.0°C (88°F)
Dewpoint: 24.0°C (75°F) [RH = 66%]
Pressure (altimeter): 29.68 inches Hg (1005.0 mb)
Winds: from the W (280 degrees) at 21 MPH (18 knots; 9.3 m/s)
Visibility: 6 or more miles (10+ km)
Ceiling: 30000 feet AGL
Clouds: few clouds at 1800 feet AGL
broken clouds at 30000 feet AGL
Weather: HZ  (haze)

METAR text: AGGM 180300Z 27011KT 9999 HZ FEW018 BKN300 31/24 Q1006
Conditions at: AGGM (MUNDA/NEW GEORGI, SB) observed 0300 UTC 18 February 2019
Temperature: 31.0°C (88°F)
Dewpoint: 24.0°C (75°F) [RH = 66%]
Pressure (altimeter): 29.70 inches Hg (1006.0 mb)
Winds: from the W (270 degrees) at 13 MPH (11 knots; 5.7 m/s)
Visibility: 6 or more miles (10+ km)
Ceiling: 30000 feet AGL
Clouds: few clouds at 1800 feet AGL
broken clouds at 30000 feet AGL
Weather: HZ  (haze)

METAR text: AGGM 180200Z 23008KT 9999 HZ FEW018 SCT100 BKN300 30/25 Q1006
Conditions at: AGGM (MUNDA/NEW GEORGI, SB) observed 0200 UTC 18 February 2019
Temperature: 30.0°C (86°F)
Dewpoint: 25.0°C (77°F) [RH = 75%]
Pressure (altimeter): 29.70 inches Hg (1006.0 mb)
Winds: from the SW (230 degrees) at 9 MPH (8 knots; 4.1 m/s)
Visibility: 6 or more miles (10+ km)
Ceiling: 30000 feet AGL
Clouds: few clouds at 1800 feet AGL
scattered clouds at 10000 feet AGL
broken clouds at 30000 feet AGL
Weather: HZ  (haze)

METAR text: AGGM 180100Z 23012KT 9999 HZ FEW018 SCT100 BKN300 30/24 Q1007
Conditions at: AGGM (MUNDA/NEW GEORGI, SB) observed 0100 UTC 18 February 2019
Temperature: 30.0°C (86°F)
Dewpoint: 24.0°C (75°F) [RH = 70%]
Pressure (altimeter): 29.73 inches Hg (1007.0 mb)
Winds: from the SW (230 degrees) at 14 MPH (12 knots; 6.2 m/s)
Visibility: 6 or more miles (10+ km)
Ceiling: 30000 feet AGL
Clouds: few clouds at 1800 feet AGL
scattered clouds at 10000 feet AGL
broken clouds at 30000 feet AGL
Weather: HZ  (haze)

METAR text: AGGM 180000Z 23012KT 9999 HZ FEW018 BKN300 30/24 Q1007
Conditions at: AGGM (MUNDA/NEW GEORGI, SB) observed 0000 UTC 18 February 2019
Temperature: 30.0°C (86°F)
Dewpoint: 24.0°C (75°F) [RH = 70%]
Pressure (altimeter): 29.73 inches Hg (1007.0 mb)
Winds: from the SW (230 degrees) at 14 MPH (12 knots; 6.2 m/s)
Visibility: 6 or more miles (10+ km)
Ceiling: 30000 feet AGL
Clouds: few clouds at 1800 feet AGL
broken clouds at 30000 feet AGL
Weather: HZ  (haze)

METAR text: AGGM 172300Z 23010KT 9999 HZ FEW018 BKN300 29/23 Q1007
Conditions at: AGGM (MUNDA/NEW GEORGI, SB) observed 2300 UTC 17 February 2019
Temperature: 29.0°C (84°F)
Dewpoint: 23.0°C (73°F) [RH = 70%]
Pressure (altimeter): 29.73 inches Hg (1007.0 mb)
Winds: from the SW (230 degrees) at 12 MPH (10 knots; 5.1 m/s)
Visibility: 6 or more miles (10+ km)
Ceiling: 30000 feet AGL
Clouds: few clouds at 1800 feet AGL
broken clouds at 30000 feet AGL
Weather: HZ  (haze)

METAR text: AGGM 172200Z 23008KT 9999 HZ FEW017 BKN300 28/23 Q1007
Conditions at: AGGM (MUNDA/NEW GEORGI, SB) observed 2200 UTC 17 February 2019
Temperature: 28.0°C (82°F)
Dewpoint: 23.0°C (73°F) [RH = 74%]
Pressure (altimeter): 29.73 inches Hg (1007.0 mb)
Winds: from the SW (230 degrees) at 9 MPH (8 knots; 4.1 m/s)
Visibility: 6 or more miles (10+ km)
Ceiling: 30000 feet AGL
Clouds: few clouds at 1700 feet AGL
broken clouds at 30000 feet AGL
Weather: HZ  (haze)

METAR text: AGGM 172100Z 25010KT 9999 -SH FEW018 BKN300 28/23 Q1007
Conditions at: AGGM (MUNDA/NEW GEORGI, SB) observed 2100 UTC 17 February 2019
Temperature: 28.0°C (82°F)
Dewpoint: 23.0°C (73°F) [RH = 74%]
Pressure (altimeter): 29.73 inches Hg (1007.0 mb)
Winds: from the WSW (250 degrees) at 12 MPH (10 knots; 5.1 m/s)
Visibility: 6 or more miles (10+ km)
Ceiling: 30000 feet AGL
Clouds: few clouds at 1800 feet AGL
broken clouds at 30000 feet AGL
Weather: -SH  (unknown weather)

METAR text: AGGM 172000Z 27010KT 9999 HZ FEW016 BKN300 28/24 Q1006
Conditions at: AGGM (MUNDA/NEW GEORGI, SB) observed 2000 UTC 17 February 2019
Temperature: 28.0°C (82°F)
Dewpoint: 24.0°C (75°F) [RH = 79%]
Pressure (altimeter): 29.70 inches Hg (1006.0 mb)
Winds: from the W (270 degrees) at 12 MPH (10 knots; 5.1 m/s)
Visibility: 6 or more miles (10+ km)
Ceiling: 30000 feet AGL
Clouds: few clouds at 1600 feet AGL
broken clouds at 30000 feet AGL
Weather: HZ  (haze)

Forecast for: AGGM (MUNDA/NEW GEORGI, SB)
Text: TAF AGGM 182310Z 1900/1924 27014KT 9999 -SHRA SCT018 BKN030 INTER 1900/1906 3000 TSSH BKN016 FEW017CB Q 1008 1006 1005 1007
Forecast period: 0000 UTC 19 February 2019 to 0000 UTC 20 February 2019
Forecast type: FROM: standard forecast or significant change
Winds: from the W (270 degrees) at 16 MPH (14 knots; 7.2 m/s)
Visibility: 6 or more miles 10+ km)
Ceiling: 3000 feet AGL
Clouds: scattered clouds at 1800 feet AGL
broken clouds at 3000 feet AGL
Weather: -SHRA  (light rain showers)
Text:
Forecast period: 0000 to 0600 UTC 19 February 2019
Forecast type: TEMPORARY: The following changes expected for less than half the time period
Visibility: 1.86 miles (2.99 km)
Ceiling: 1600 feet AGL
Clouds: broken clouds at 1600 feet AGL
few clouds at 1700 feet AGL
Weather: SH TS  (showers, thunderstorm)